Flight Track Log - Related Links

Times and Time Zones

All times are in EDT time to prevent confusion due to time zone crossing. See the DAL268 flight status page for this flight to view local times or setup timezone preferences in your user account.

Time Position Orientation Groundspeed Altitude Reporting Facility
EDT Latitude Longitude Course Direction KTS MPH feet Rate Location/Type
Sat 07:43:21 PM 33.6500 -84.4667 340° North 162 186 2,600  Level Atlanta TRACON
Sat 07:44:27 PM 33.7000 -84.5333 312° West 246 283 4,700 2,200 Climbing Atlanta TRACON
Sat 07:45:00 PM 33.8367 -84.1700 320° Northwest  Level FlightAware Approximate
Sat 07:45:21 PM 33.7500 -84.5833 320° Northwest 263 303 7,000  Level Atlanta TRACON
Sat 07:46:00 PM 33.9311 -84.2645 320° Northwest  Level FlightAware Approximate
Sat 07:46:58 PM 33.8744 -84.5717 North 302 348 10,500  Level Atlanta Center
Sat 07:47:00 PM 34.0455 -84.3176 339° North  Level FlightAware Approximate
Sat 07:47:58 PM 33.9706 -84.5372 17° North 333 383 11,700  Level Atlanta Center
Sat 07:48:00 PM 34.1616 -84.3625 340° North  Level FlightAware Approximate
Sat 07:48:58 PM 34.0689 -84.5028 16° North 374 430 13,200  Level Atlanta Center
Sat 07:49:58 PM 34.1817 -84.4631 16° North 410 472 15,500 2,150 Climbing Atlanta Center
Sat 07:50:58 PM 34.2986 -84.4261 15° North 423 487 17,500 2,100 Climbing Atlanta Center
Sat 07:51:58 PM 34.4219 -84.4189 North 436 502 19,700 2,400 Climbing Atlanta Center
Sat 07:52:58 PM 34.5431 -84.4144 North 436 502 22,300 2,100 Climbing Atlanta Center
Sat 07:53:58 PM 34.6597 -84.4125 North 425 489 23,900 1,450 Climbing Atlanta Center
Sat 07:54:58 PM 34.7850 -84.4131 360° North 431 496 25,200 1,150 Climbing Atlanta Center
Sat 07:55:58 PM 34.9186 -84.4061 North 431 496 26,200 950 Climbing Atlanta Center
Sat 07:56:58 PM 35.0314 -84.4067 360° North 437 503 27,100 750 Climbing Atlanta Center
Sat 07:57:58 PM 35.1647 -84.4047 North 457 526 27,700 750 Climbing Atlanta Center
Sat 07:58:58 PM 35.2983 -84.4000 North 470 541 28,600 900 Climbing Atlanta Center
Sat 07:59:58 PM 35.4361 -84.3956 North 480 552 29,500 700 Climbing Atlanta Center
Sat 08:00:58 PM 35.5758 -84.3936 North 492 566 30,000 250 Climbing Atlanta Center
Sat 08:01:58 PM 35.7114 -84.3892 North 492 566 30,000  Level Atlanta Center
Sat 08:02:58 PM 35.8514 -84.3872 North 497 572 30,000  Level Atlanta Center
Sat 08:03:58 PM 35.9869 -84.3800 North 497 572 30,000  Level Atlanta Center
Sat 08:06:15 PM 36.3128 -84.3722 North 493 567 30,000  Level Indianapolis Center
Sat 08:07:16 PM 36.4503 -84.3686 North 495 570 30,000  Level Indianapolis Center
Sat 08:08:17 PM 36.5947 -84.3642 North 487 560 30,000 49 Level Indianapolis Center
Sat 08:09:18 PM 36.7292 -84.3603 North 483 556 30,100 492 Climbing Indianapolis Center
Sat 08:10:19 PM 36.8647 -84.3572 North 484 557 31,000 836 Climbing Indianapolis Center
Sat 08:11:20 PM 37.0006 -84.3536 North 485 558 31,800 492 Climbing Indianapolis Center
Sat 08:12:21 PM 37.1383 -84.3500 North 489 563 32,000 98 Climbing Indianapolis Center
Sat 08:13:22 PM 37.2733 -84.3475 North 484 557 32,000  Level Indianapolis Center
Sat 08:14:23 PM 37.4081 -84.3442 North 482 555 32,000  Level Indianapolis Center
Sat 08:15:25 PM 37.5425 -84.3403 North 480 552 32,000  Level Indianapolis Center
Sat 08:16:26 PM 37.6769 -84.3317 North 481 554 32,000  Level Indianapolis Center
Sat 08:17:27 PM 37.8117 -84.3036 North 490 564 32,000  Level Indianapolis Center
Sat 08:18:28 PM 37.9450 -84.2878 North 481 554 32,000  Level Indianapolis Center
Sat 08:19:29 PM 38.0772 -84.2733 North 477 549 32,000  Level Indianapolis Center
Sat 08:20:30 PM 38.2086 -84.2597 North 476 548 32,000  Level Indianapolis Center
Sat 08:21:31 PM 38.3381 -84.2461 North 469 540 32,000  Level Indianapolis Center
Sat 08:22:32 PM 38.4903 -84.2303 North 468 539 32,000  Level Indianapolis Center
Sat 08:23:33 PM 38.6194 -84.2178 North 465 535 32,000 -49 Level Indianapolis Center
Sat 08:24:34 PM 38.7489 -84.2039 North 473 544 31,900  Descending Indianapolis Center
Sat 08:25:35 PM 38.8814 -84.1919 North 473 544 32,000 49 Climbing Indianapolis Center
Sat 08:26:36 PM 39.0136 -84.1781 North 471 542 32,000  Level Indianapolis Center
Sat 08:27:37 PM 39.1475 -84.1633 North 474 545 32,000  Level Indianapolis Center
Sat 08:28:38 PM 39.2797 -84.1481 North 472 543 32,000  Level Indianapolis Center
Sat 08:29:40 PM 39.4139 -84.1344 North 474 545 32,000  Level Indianapolis Center
Sat 08:30:41 PM 39.5494 -84.1222 North 480 552 32,000  Level Indianapolis Center
Sat 08:31:42 PM 39.6831 -84.0961 North 481 554 32,000  Level Indianapolis Center
Sat 08:32:43 PM 39.8003 -83.9903 35° Northeast 507 583 32,000  Level Indianapolis Center
Sat 08:33:44 PM 39.9092 -83.8653 41° Northeast 512 589 32,000 344 Level Indianapolis Center
Sat 08:34:45 PM 40.0200 -83.7400 41° Northeast 515 593 32,700 443 Climbing Indianapolis Center
Sat 08:35:46 PM 40.1303 -83.6150 41° Northeast 514 592 32,900 148 Climbing Indianapolis Center
Sat 08:36:47 PM 40.2383 -83.4892 42° Northeast 513 590 33,000 49 Climbing Indianapolis Center
Sat 08:37:48 PM 40.3469 -83.3617 42° Northeast 517 595 33,000  Level Indianapolis Center
Sat 08:38:49 PM 40.4553 -83.2344 42° Northeast 517 595 33,000  Level Indianapolis Center
Sat 08:39:50 PM 40.5589 -83.1122 42° Northeast 517 595 33,000  Level Indianapolis Center
Sat 08:40:22 PM 40.6264 -83.0369 40° Northeast 511 588 33,000  Level Cleveland Center
Sat 08:41:22 PM 40.7231 -82.8981 47° Northeast 511 588 33,000  Level Cleveland Center
Sat 08:42:22 PM 40.7764 -82.7411 66° East 511 588 33,000  Level Cleveland Center
Sat 08:43:22 PM 40.8192 -82.5642 72° East 504 580 33,000  Level Cleveland Center
Sat 08:44:22 PM 40.8658 -82.3814 71° East 511 588 33,000  Level Cleveland Center
Sat 08:45:22 PM 40.9128 -82.1850 72° East 510 587 33,000  Level Cleveland Center
Sat 08:46:22 PM 40.9547 -82.0072 73° East 510 587 33,000  Level Cleveland Center
Sat 08:47:22 PM 41.0006 -81.8239 72° East 510 587 33,000  Level Cleveland Center
Sat 08:48:22 PM 41.0419 -81.6458 73° East 515 593 33,000  Level Cleveland Center
Sat 08:49:22 PM 41.0831 -81.4675 73° East 510 587 33,000  Level Cleveland Center
Sat 08:50:22 PM 41.1261 -81.2889 72° East 510 587 33,000  Level Cleveland Center
Sat 08:51:22 PM 41.1667 -81.1100 73° East 504 580 33,000  Level Cleveland Center
Sat 08:52:22 PM 41.2069 -80.9336 73° East 494 568 33,000  Level Cleveland Center
Sat 08:53:22 PM 41.2489 -80.7572 72° East 494 568 33,000  Level Cleveland Center
Sat 08:54:22 PM 41.2889 -80.5803 73° East 494 568 33,000  Level Cleveland Center
Sat 08:55:22 PM 41.3261 -80.4033 74° East 494 568 33,000  Level Cleveland Center
Sat 08:56:22 PM 41.3633 -80.2456 73° East 494 568 33,000  Level Cleveland Center
Sat 08:57:22 PM 41.4022 -80.0683 74° East 494 568 33,000  Level Cleveland Center
Sat 08:58:22 PM 41.4450 -79.8794 73° East 494 568 33,000  Level Cleveland Center
Sat 08:59:22 PM 41.4833 -79.7017 74° East 494 568 33,000  Level Cleveland Center
Sat 09:00:22 PM 41.5217 -79.5264 74° East 494 568 33,000  Level Cleveland Center
Sat 09:01:22 PM 41.5594 -79.3511 74° East 494 568 33,000  Level Cleveland Center
Sat 09:02:22 PM 41.5969 -79.1728 74° East 494 568 33,000  Level Cleveland Center
Sat 09:03:22 PM 41.6322 -78.9969 75° East 494 568 33,000  Level Cleveland Center
Sat 09:04:22 PM 41.6692 -78.8236 74° East 494 568 33,000  Level Cleveland Center
Sat 09:05:22 PM 41.7061 -78.6444 75° East 494 568 33,000  Level Cleveland Center
Sat 09:06:22 PM 41.7425 -78.4708 74° East 494 568 33,000  Level Cleveland Center
Sat 09:07:22 PM 41.7744 -78.2917 76° East 494 568 33,000  Level Cleveland Center
Sat 09:08:22 PM 41.8125 -78.1147 74° East 494 568 33,000  Level Cleveland Center
Sat 09:09:22 PM 41.8461 -77.9378 76° East 494 568 33,000  Level Cleveland Center
Sat 09:09:42 PM 41.8531 -77.9025 75° East 492 566 33,000  Level New York Center
Sat 09:10:41 PM 41.8300 -77.7303 100° East 449 517 33,000  Level New York Center
Sat 09:11:41 PM 41.7856 -77.5586 109° East 467 537 33,000  Level New York Center
Sat 09:12:42 PM 41.7411 -77.3900 109° East 467 537 33,000  Level New York Center
Sat 09:13:40 PM 41.6983 -77.2217 109° East 472 543 33,000  Level New York Center
Sat 09:14:42 PM 41.6528 -77.0564 110° East 477 549 33,000  Level New York Center
Sat 09:15:41 PM 41.6056 -76.8883 111° Southeast 477 549 33,000  Level New York Center
Sat 09:16:42 PM 41.5639 -76.7236 109° East 477 549 33,000  Level New York Center
Sat 09:17:42 PM 41.5122 -76.5472 111° Southeast 477 549 33,000  Level New York Center
Sat 09:18:41 PM 41.4700 -76.3831 109° East 472 543 33,000  Level New York Center
Sat 09:19:41 PM 41.4194 -76.2156 112° Southeast 477 549 33,000 -545 Level New York Center
Sat 09:20:42 PM 41.3767 -76.0600 110° East 484 557 31,900 -1,488 Descending New York Center
Sat 09:21:42 PM 41.3317 -75.8989 110° East 479 551 30,000 -2,723 Descending New York Center
Sat 09:22:41 PM 41.2844 -75.7325 111° Southeast 479 551 26,500 -3,200 Descending New York Center
Sat 09:23:42 PM 41.2308 -75.5658 113° Southeast 484 557 23,600 -1,750 Descending New York Center
Sat 09:24:41 PM 41.1786 -75.4131 114° Southeast 472 543 23,000 -303 Descending New York Center
Sat 09:25:41 PM 41.1342 -75.2750 113° Southeast 437 503 23,000 -200 Level New York Center
Sat 09:26:41 PM 41.0908 -75.1511 115° Southeast 397 457 22,600 -793 Descending New York Center
Sat 09:27:42 PM 41.0536 -75.0250 111° Southeast 372 428 21,400 -800 Descending New York Center
Sat 09:28:41 PM 41.0839 -74.8808 74° East 356 410 21,000 -252 Descending New York Center
Sat 09:29:41 PM 41.1281 -74.7486 66° East 366 421 20,900  Descending New York Center
Sat 09:30:42 PM 41.1158 -74.6075 97° East 374 430 21,000 50 Climbing New York Center
Sat 09:31:41 PM 41.0675 -74.4975 120° Southeast 348 400 21,000 -504 Level New York Center
Sat 09:32:41 PM 41.0169 -74.3764 119° Southeast 354 407 20,000 -1,163 Descending New York Center
Sat 09:33:19 PM 40.9833 -74.2833 116° Southeast 354 407 19,100 -612 Descending New York TRACON
Sat 09:34:19 PM 40.9167 -74.2000 137° Southeast 338 389 19,000 -650 Descending New York TRACON
Sat 09:35:19 PM 40.8333 -74.1333 149° Southeast 326 375 17,800 -1,100 Descending New York TRACON
Sat 09:36:19 PM 40.7500 -74.1000 163° South 318 366 16,800 -1,053 Descending New York TRACON
Sat 09:37:13 PM 40.6833 -74.0667 159° South 316 364 15,800 -1,421 Descending New York TRACON
Sat 09:38:13 PM 40.6000 -74.0333 163° South 305 351 14,100 -1,400 Descending New York TRACON
Sat 09:39:13 PM 40.5333 -73.9667 143° Southeast 318 366 13,000 -600 Descending New York TRACON
Sat 09:40:13 PM 40.4833 -73.8667 123° Southeast 320 368 12,900 -1,095 Descending New York TRACON
Sat 09:41:19 PM 40.4167 -73.7833 136° Southeast 321 369 10,700 -1,667 Descending New York TRACON
Sat 09:42:19 PM 40.3500 -73.7000 136° Southeast 300 345 9,400 -1,600 Descending New York TRACON
Sat 09:43:19 PM 40.3667 -73.6000 78° East 321 369 7,500 -1,643 Descending New York TRACON
Sat 09:43:43 PM 40.3908 -73.5750 38° Northeast 231 266 7,100 -1,500 Descending New York Center
Sat 09:44:19 PM 40.4333 -73.5333 37° Northeast 296 341 6,000 -1,563 Descending New York TRACON
Sat 09:45:19 PM 40.5167 -73.4833 25° Northeast 286 329 4,600 -1,000 Descending New York TRACON
Sat 09:46:19 PM 40.5833 -73.4333 30° Northeast 281 323 4,000 -300 Descending New York TRACON
Sat 09:47:19 PM 40.6333 -73.3833 37° Northeast 240 276 4,000  Level New York TRACON
Sat 09:48:19 PM 40.7000 -73.3833 360° North 230 265 4,000 -53 Level New York TRACON
Sat 09:49:13 PM 40.7333 -73.4333 311° West 210 242 3,900 -368 Descending New York TRACON
Sat 09:50:13 PM 40.7667 -73.5000 303° West 213 245 3,300 -450 Descending New York TRACON
Sat 09:51:13 PM 40.8000 -73.5667 303° West 199 229 3,000 -190 Descending New York TRACON
Sat 09:52:19 PM 40.7833 -73.6333 252° West 185 213 2,900 -300 Descending New York TRACON
Sat 09:53:13 PM 40.7500 -73.6667 217° Southwest 186 214 2,400 -556 Descending New York TRACON

Login

Don't have an account? Register now (free) for customized features, flight alerts, and more!